createdAt,value
2022-11-10T00:01:07.702Z,101675.50
2022-11-10T00:03:53.777Z,101670.22
2022-11-10T00:06:41.225Z,101677.28
2022-11-10T00:09:27.230Z,101675.50
2022-11-10T00:12:13.160Z,101672.75
2022-11-10T00:15:18.284Z,101681.28
2022-11-10T00:18:05.295Z,101689.19
2022-11-10T00:20:51.290Z,101691.00
2022-11-10T00:23:37.312Z,101691.28
2022-11-10T00:26:23.435Z,101683.50
2022-11-10T00:29:09.329Z,101682.84
2022-11-10T00:31:55.484Z,101691.84
2022-11-10T00:34:41.634Z,101696.47
2022-11-10T00:37:27.646Z,101691.84
2022-11-10T00:40:13.574Z,101698.91
2022-11-10T00:42:59.655Z,101703.09
2022-11-10T00:45:47.282Z,101701.09
2022-11-10T00:48:33.523Z,101706.31
2022-11-10T00:51:28.044Z,101711.34
2022-11-10T00:54:14.187Z,101714.75
2022-11-10T00:57:00.250Z,101707.81
2022-11-10T00:59:46.511Z,101702.56
2022-11-10T01:02:32.665Z,101711.09
2022-11-10T01:05:18.741Z,101706.72
2022-11-10T01:08:05.619Z,101699.53
2022-11-10T01:10:51.538Z,101703.91
2022-11-10T01:13:37.614Z,101702.50
2022-11-10T01:16:27.031Z,101704.63
2022-11-10T01:19:12.976Z,101710.84
2022-11-10T01:22:01.181Z,101708.34
2022-11-10T01:24:47.091Z,101713.00
2022-11-10T01:27:33.089Z,101716.34
2022-11-10T01:30:20.049Z,101720.53
2022-11-10T01:33:06.115Z,101716.91
2022-11-10T01:35:52.248Z,101718.47
2022-11-10T01:38:40.355Z,101712.59
2022-11-10T01:41:26.562Z,101723.41
2022-11-10T01:44:22.037Z,101717.25
2022-11-10T01:47:08.685Z,101715.63
2022-11-10T01:49:54.913Z,101717.41
2022-11-10T01:52:44.178Z,101720.00
2022-11-10T01:55:32.490Z,101717.31
2022-11-10T01:58:24.537Z,101719.13
2022-11-10T02:01:10.885Z,101721.56
2022-11-10T02:04:01.618Z,101724.22
2022-11-10T02:06:49.650Z,101739.38
2022-11-10T02:09:35.612Z,101742.88
2022-11-10T02:12:37.131Z,101740.84
2022-11-10T02:15:23.999Z,101744.13
2022-11-10T02:18:10.163Z,101749.13
2022-11-10T02:20:56.330Z,101749.19
2022-11-10T02:23:46.246Z,101747.00
2022-11-10T02:26:32.766Z,101757.63
2022-11-10T02:29:19.266Z,101762.59
2022-11-10T02:32:05.360Z,101763.66
2022-11-10T02:34:51.254Z,101757.34
2022-11-10T02:37:37.512Z,101755.00
2022-11-10T02:40:23.672Z,101751.91
2022-11-10T02:43:12.825Z,101747.13
2022-11-10T02:45:58.817Z,101740.38
2022-11-10T02:48:45.099Z,101745.81
2022-11-10T02:51:31.232Z,101740.03
2022-11-10T02:54:17.092Z,101745.94
2022-11-10T02:57:03.128Z,101750.34
2022-11-10T02:59:49.314Z,101753.28
2022-11-10T03:02:35.303Z,101756.75
2022-11-10T03:05:21.537Z,101744.28
2022-11-10T03:08:07.703Z,101741.50
2022-11-10T03:10:55.425Z,101742.56
2022-11-10T03:14:00.447Z,101743.50
2022-11-10T03:16:47.136Z,101747.78
2022-11-10T03:19:33.240Z,101739.22
2022-11-10T03:22:19.131Z,101743.03
2022-11-10T03:25:06.351Z,101742.16
2022-11-10T03:27:52.508Z,101743.25
2022-11-10T03:30:38.784Z,101748.34
2022-11-10T03:33:25.059Z,101747.78
2022-11-10T03:36:11.736Z,101754.25
2022-11-10T03:38:57.471Z,101748.09
2022-11-10T03:41:43.352Z,101746.94
2022-11-10T03:44:29.532Z,101756.53
2022-11-10T03:47:15.481Z,101752.97
2022-11-10T03:50:01.285Z,101756.28
2022-11-10T03:52:47.383Z,101758.97
2022-11-10T03:55:33.433Z,101766.00
2022-11-10T03:58:19.628Z,101758.22
2022-11-10T04:01:05.616Z,101766.75
2022-11-10T04:03:51.853Z,101762.44
2022-11-10T04:06:56.368Z,101771.53
2022-11-10T04:09:42.466Z,101775.06
2022-11-10T04:12:46.652Z,101767.69
2022-11-10T04:15:44.839Z,101773.91
2022-11-10T04:18:31.048Z,101780.25
2022-11-10T04:21:17.328Z,101776.56
2022-11-10T04:24:04.230Z,101786.75
2022-11-10T04:26:50.302Z,101790.13
2022-11-10T04:29:36.664Z,101791.75
2022-11-10T04:32:22.711Z,101791.41
2022-11-10T04:35:09.173Z,101793.91
2022-11-10T04:37:55.034Z,101800.88
2022-11-10T04:40:40.876Z,101803.44
2022-11-10T04:43:27.260Z,101811.03
2022-11-10T04:46:33.714Z,101815.22
2022-11-10T04:49:19.701Z,101822.34
2022-11-10T04:52:05.822Z,101808.09
2022-11-10T04:54:51.807Z,101821.63
2022-11-10T04:57:37.675Z,101823.44
2022-11-10T05:00:23.918Z,101816.44
2022-11-10T05:03:11.493Z,101820.47
2022-11-10T05:05:57.779Z,101814.13
2022-11-10T05:08:44.894Z,101819.34
2022-11-10T05:11:30.519Z,101819.69
2022-11-10T05:14:16.249Z,101810.69
2022-11-10T05:17:02.294Z,101808.06
2022-11-10T05:19:48.341Z,101804.84
2022-11-10T05:22:34.793Z,101810.13
2022-11-10T05:25:20.949Z,101807.22
2022-11-10T05:28:08.826Z,101812.78
2022-11-10T05:30:54.974Z,101824.75
2022-11-10T05:33:41.061Z,101829.59
2022-11-10T05:36:27.158Z,101823.72
2022-11-10T05:39:13.147Z,101822.81
2022-11-10T05:41:59.358Z,101834.41
2022-11-10T05:44:45.237Z,101836.03
2022-11-10T05:47:31.287Z,101843.56
2022-11-10T05:50:18.988Z,101850.06
2022-11-10T05:53:04.961Z,101848.09
2022-11-10T05:55:52.062Z,101845.47
2022-11-10T05:58:37.634Z,101856.56
2022-11-10T06:01:23.668Z,101859.56
2022-11-10T06:04:09.534Z,101854.84
2022-11-10T06:06:55.464Z,101850.75
2022-11-10T06:09:41.502Z,101846.88
2022-11-10T06:12:30.400Z,101847.59
2022-11-10T06:15:17.065Z,101845.72
2022-11-10T06:18:03.661Z,101848.19
2022-11-10T06:20:49.599Z,101848.63
2022-11-10T06:23:35.489Z,101843.59
2022-11-10T06:26:21.459Z,101840.06
2022-11-10T06:29:07.642Z,101837.03
2022-11-10T06:31:53.751Z,101842.44
2022-11-10T06:34:39.738Z,101838.84
2022-11-10T06:37:25.878Z,101839.59
2022-11-10T06:40:14.153Z,101843.38
2022-11-10T06:43:00.234Z,101850.22
2022-11-10T06:45:46.142Z,101854.75
2022-11-10T06:48:32.163Z,101853.66
2022-11-10T06:51:18.570Z,101865.19
2022-11-10T06:54:04.610Z,101860.72
2022-11-10T06:56:50.743Z,101869.00
2022-11-10T06:59:36.911Z,101869.31
2022-11-10T07:02:22.810Z,101871.31
2022-11-10T07:05:09.090Z,101875.81
2022-11-10T07:07:55.122Z,101881.69
2022-11-10T07:10:41.271Z,101883.34
2022-11-10T07:13:27.231Z,101888.66
2022-11-10T07:16:13.100Z,101897.34
2022-11-10T07:18:59.151Z,101898.59
2022-11-10T07:21:45.056Z,101892.31
2022-11-10T07:24:30.960Z,101896.66
2022-11-10T07:27:16.954Z,101903.72
2022-11-10T07:30:04.032Z,101912.50
2022-11-10T07:33:06.475Z,101910.28
2022-11-10T07:35:57.981Z,101906.69
2022-11-10T07:38:43.769Z,101914.66
2022-11-10T07:41:29.703Z,101926.84
2022-11-10T07:44:15.606Z,101938.97
2022-11-10T07:47:02.994Z,101948.41
2022-11-10T07:49:49.039Z,101942.50
2022-11-10T07:52:35.503Z,101951.94
2022-11-10T07:55:21.961Z,101954.38
2022-11-10T07:58:09.003Z,101947.03
2022-11-10T08:00:54.878Z,101958.75
2022-11-10T08:03:41.068Z,101962.44
2022-11-10T08:06:28.454Z,101965.41
2022-11-10T08:09:15.142Z,101970.97
2022-11-10T08:12:01.358Z,101974.66
2022-11-10T08:14:47.203Z,101983.41
2022-11-10T08:17:33.263Z,101988.66
2022-11-10T08:20:19.413Z,101986.00
2022-11-10T08:23:06.758Z,101997.44
2022-11-10T08:25:53.471Z,101999.47
2022-11-10T08:28:39.503Z,102013.53
2022-11-10T08:31:25.797Z,102004.84
2022-11-10T08:34:11.659Z,101997.13
2022-11-10T08:36:58.028Z,101993.78
2022-11-10T08:39:44.265Z,101996.69
2022-11-10T08:42:30.121Z,101996.88
2022-11-10T08:45:16.153Z,101990.69
2022-11-10T08:48:13.172Z,101987.28
2022-11-10T08:51:00.940Z,101998.88
2022-11-10T08:53:47.117Z,101994.34
2022-11-10T08:56:33.869Z,101999.56
2022-11-10T08:59:20.019Z,102005.72
2022-11-10T09:02:06.024Z,102004.19
2022-11-10T09:04:53.631Z,102008.72
2022-11-10T09:07:44.513Z,102021.16
2022-11-10T09:10:31.534Z,102021.19
2022-11-10T09:13:26.084Z,102010.75
2022-11-10T09:16:15.648Z,102013.38
2022-11-10T09:25:34.759Z,102022.38
2022-11-10T09:28:21.325Z,102026.72
2022-11-10T09:31:07.544Z,102020.56
2022-11-10T09:33:53.609Z,102020.56
2022-11-10T09:36:40.432Z,102025.88
2022-11-10T09:39:26.509Z,102028.59
2022-11-10T09:42:21.328Z,102037.38
2022-11-10T09:45:39.527Z,102033.03
2022-11-10T09:48:37.427Z,102034.78
2022-11-10T09:51:31.961Z,102040.06
2022-11-10T09:54:48.481Z,102042.72
2022-11-10T09:57:34.826Z,102046.25
2022-11-10T10:00:21.113Z,102043.59
2022-11-10T10:03:08.215Z,102045.38
2022-11-10T10:05:57.087Z,102058.63
2022-11-10T10:09:11.943Z,102055.09
2022-11-10T10:12:40.839Z,102065.66
2022-11-10T10:16:04.638Z,102063.84
2022-11-10T10:19:06.875Z,102063.88
2022-11-10T10:22:17.839Z,102063.00
2022-11-10T10:25:13.530Z,102062.09
2022-11-10T10:28:28.639Z,102073.53
2022-11-10T10:31:47.198Z,102072.63
2022-11-10T10:34:35.308Z,102066.47
2022-11-10T10:37:23.201Z,102064.69
2022-11-10T10:40:15.140Z,102062.91
2022-11-10T10:43:01.173Z,102060.28
2022-11-10T10:46:04.686Z,102054.13
2022-11-10T10:49:27.843Z,102055.84
2022-11-10T10:52:25.021Z,102057.66
2022-11-10T10:55:14.103Z,102051.47
2022-11-10T10:58:19.505Z,102066.41
2022-11-10T11:01:20.246Z,102063.72
2022-11-10T11:04:27.201Z,102079.63
2022-11-10T11:07:25.251Z,102077.03
2022-11-10T11:10:22.517Z,102078.81
2022-11-10T11:13:21.596Z,102070.94
2022-11-10T11:16:14.929Z,102078.00
2022-11-10T11:19:02.260Z,102076.22
2022-11-10T11:21:54.037Z,102085.88
2022-11-10T11:24:48.439Z,102090.28
2022-11-10T11:27:49.411Z,102082.31
2022-11-10T11:30:44.703Z,102081.38
2022-11-10T11:33:33.903Z,102089.28
2022-11-10T11:36:38.337Z,102083.09
2022-11-10T11:39:44.382Z,102083.13
2022-11-10T11:42:46.092Z,102080.50
2022-11-10T11:45:50.118Z,102083.13
2022-11-10T11:49:07.118Z,102081.41
2022-11-10T11:51:56.511Z,102075.22
2022-11-10T11:55:07.564Z,102065.56
2022-11-10T11:58:36.580Z,102081.50
2022-11-10T12:01:29.650Z,102082.34
2022-11-10T12:04:38.017Z,102075.34
2022-11-10T12:07:29.844Z,102084.16
2022-11-10T12:10:24.729Z,102080.63
2022-11-10T12:13:25.818Z,102080.63
2022-11-10T12:16:24.584Z,102087.63
2022-11-10T12:19:32.860Z,102087.66
2022-11-10T12:22:40.326Z,102086.78
2022-11-10T12:25:59.464Z,102082.38
2022-11-10T12:29:18.799Z,102076.22
2022-11-10T12:32:43.182Z,102092.09
2022-11-10T12:35:35.795Z,102082.34
2022-11-10T12:38:26.915Z,102092.88
2022-11-10T12:41:17.122Z,102076.19
2022-11-10T12:44:21.286Z,102075.31
2022-11-10T12:47:15.848Z,102077.06
2022-11-10T12:50:08.881Z,102070.91
2022-11-10T12:53:03.555Z,102074.41
2022-11-10T12:56:05.359Z,102079.69
2022-11-10T12:59:20.022Z,102073.53
2022-11-10T13:02:51.156Z,102060.34
2022-11-10T13:05:45.597Z,102059.47
2022-11-10T13:08:35.997Z,102048.88
2022-11-10T13:11:42.533Z,102061.19
2022-11-10T13:14:30.045Z,102053.25
2022-11-10T13:17:26.150Z,102053.22
2022-11-10T13:20:39.752Z,102045.31
2022-11-10T13:23:31.720Z,102045.31
2022-11-10T13:26:39.253Z,102044.41
2022-11-10T13:29:32.099Z,102041.78
2022-11-10T13:32:35.327Z,102035.63
2022-11-10T13:35:30.488Z,102019.78
2022-11-10T13:38:36.748Z,102033.03
2022-11-10T13:41:24.868Z,102028.63
2022-11-10T13:44:42.172Z,102035.66
2022-11-10T13:47:42.513Z,102040.06
2022-11-10T13:50:38.370Z,102028.59
2022-11-10T13:53:24.004Z,102033.00
2022-11-10T13:56:22.575Z,102025.06
2022-11-10T13:59:30.642Z,102016.28
2022-11-10T14:02:34.754Z,102017.16
2022-11-10T14:05:38.628Z,102023.31
2022-11-10T14:08:29.362Z,102010.13
2022-11-10T14:11:35.547Z,102007.47
2022-11-10T14:14:36.078Z,102021.56
2022-11-10T14:17:36.530Z,102020.66
2022-11-10T14:20:27.672Z,102019.75
2022-11-10T14:23:24.996Z,102018.88
2022-11-10T14:26:34.893Z,102014.50
2022-11-10T14:29:32.611Z,102020.66
2022-11-10T14:32:24.944Z,102031.16
2022-11-10T14:35:24.088Z,102025.00
2022-11-10T14:38:27.874Z,102017.03
2022-11-10T14:41:21.924Z,102032.84
2022-11-10T14:44:22.818Z,102042.53
2022-11-10T14:47:16.066Z,102035.56
2022-11-10T14:50:06.143Z,102033.88
2022-11-10T14:52:57.431Z,102039.09
2022-11-10T14:55:46.892Z,102050.50
2022-11-10T14:58:38.597Z,102062.75
2022-11-10T15:01:24.643Z,102062.75
2022-11-10T15:04:12.219Z,102062.72
2022-11-10T15:07:00.492Z,102066.22
2022-11-10T15:10:16.055Z,102067.97
2022-11-10T15:13:14.304Z,102061.81
2022-11-10T15:16:29.499Z,102066.22
2022-11-10T15:19:31.779Z,102075.88
2022-11-10T15:22:29.726Z,102072.28
2022-11-10T15:25:21.602Z,102081.97
2022-11-10T15:28:13.980Z,102079.34
2022-11-10T15:31:06.636Z,102081.91
2022-11-10T15:33:55.851Z,102088.06
2022-11-10T15:36:41.629Z,102093.31
2022-11-10T15:39:28.856Z,102090.59
2022-11-10T15:42:23.889Z,102098.44
2022-11-10T15:45:10.212Z,102102.00
2022-11-10T15:47:56.652Z,102085.31
2022-11-10T15:50:46.055Z,102082.63
2022-11-10T15:53:43.905Z,102098.47
2022-11-10T15:56:31.114Z,102102.84
2022-11-10T15:59:16.976Z,102093.19
2022-11-10T16:02:03.048Z,102094.03
2022-11-10T16:04:53.403Z,102104.47
2022-11-10T16:07:43.206Z,102104.47
2022-11-10T16:10:30.468Z,102107.97
2022-11-10T16:13:21.496Z,102105.31
2022-11-10T16:16:08.017Z,102115.81
2022-11-10T16:18:54.316Z,102119.31
2022-11-10T16:21:40.312Z,102116.63
2022-11-10T16:24:26.664Z,102113.97
2022-11-10T16:27:14.905Z,102120.09
2022-11-10T16:30:00.747Z,102117.38
2022-11-10T16:32:46.712Z,102120.03
2022-11-10T16:35:32.930Z,102119.19
2022-11-10T16:38:20.810Z,102117.47
2022-11-10T16:41:14.479Z,102112.19
2022-11-10T16:44:00.885Z,102132.38
2022-11-10T16:46:53.722Z,102125.13
2022-11-10T16:49:44.389Z,102120.69
2022-11-10T16:52:30.407Z,102129.47
2022-11-10T16:55:16.122Z,102122.47
2022-11-10T16:58:02.111Z,102126.84
2022-11-10T17:00:48.886Z,102131.25
2022-11-10T17:03:38.136Z,102138.31
2022-11-10T17:06:26.535Z,102138.25
2022-11-10T17:09:21.679Z,102136.50
2022-11-10T17:12:14.861Z,102129.41
2022-11-10T17:15:00.668Z,102140.72
2022-11-10T17:17:51.489Z,102142.41
2022-11-10T17:20:40.458Z,102137.13
2022-11-10T17:23:27.042Z,102138.84
2022-11-10T17:26:14.404Z,102138.84
2022-11-10T17:29:00.474Z,102137.13
2022-11-10T17:31:46.856Z,102146.63
2022-11-10T17:34:32.899Z,102147.44
2022-11-10T17:37:19.288Z,102156.13
2022-11-10T17:40:23.418Z,102145.47
2022-11-10T17:43:12.118Z,102154.31
2022-11-10T17:45:58.543Z,102150.69
2022-11-10T17:48:45.692Z,102144.47
2022-11-10T17:51:33.589Z,102152.34
2022-11-10T17:54:19.838Z,102153.13
2022-11-10T17:57:06.797Z,102158.19
2022-11-10T17:59:52.631Z,102163.25
2022-11-10T18:02:38.410Z,102162.56
2022-11-10T18:05:24.488Z,102165.03
2022-11-10T18:08:12.245Z,102171.00
2022-11-10T18:11:01.232Z,102171.59
2022-11-10T18:13:47.506Z,102164.56
2022-11-10T18:16:33.729Z,102165.41
2022-11-10T18:19:19.891Z,102166.22
2022-11-10T18:22:07.476Z,102169.84
2022-11-10T18:24:53.599Z,102167.88
2022-11-10T18:27:39.516Z,102175.63
2022-11-10T18:30:25.700Z,102174.72
2022-11-10T18:33:12.559Z,102173.78
2022-11-10T18:35:59.160Z,102171.78
2022-11-10T18:38:45.127Z,102171.66
2022-11-10T18:41:49.104Z,102174.09
2022-11-10T18:44:38.710Z,102180.19
2022-11-10T18:47:24.602Z,102185.25
2022-11-10T18:50:11.189Z,102183.53
2022-11-10T18:52:57.751Z,102195.69
2022-11-10T18:55:53.659Z,102197.38
2022-11-10T18:58:40.241Z,102202.56
2022-11-10T19:01:26.756Z,102199.94
2022-11-10T19:04:13.877Z,102195.69
2022-11-10T19:07:00.006Z,102195.59
2022-11-10T19:09:45.896Z,102194.59
2022-11-10T19:12:32.162Z,102193.75
2022-11-10T19:15:18.228Z,102191.16
2022-11-10T19:18:04.371Z,102201.63
2022-11-10T19:20:50.395Z,102199.63
2022-11-10T19:23:36.461Z,102194.34
2022-11-10T19:26:23.515Z,102196.88
2022-11-10T19:29:09.647Z,102197.56
2022-11-10T19:31:55.942Z,102192.34
2022-11-10T19:34:41.900Z,102197.41
2022-11-10T19:37:32.114Z,102208.91
2022-11-10T19:40:21.478Z,102196.44
2022-11-10T19:43:08.312Z,102208.56
2022-11-10T19:45:54.239Z,102209.28
2022-11-10T19:48:41.018Z,102203.00
2022-11-10T19:51:28.670Z,102208.19
2022-11-10T19:54:14.822Z,102203.66
2022-11-10T19:57:01.332Z,102205.50
2022-11-10T19:59:47.111Z,102204.69
2022-11-10T20:02:33.202Z,102207.31
2022-11-10T20:05:19.646Z,102211.66
2022-11-10T20:08:13.420Z,102211.53
2022-11-10T20:11:04.795Z,102206.09
2022-11-10T20:13:54.980Z,102202.81
2022-11-10T20:16:41.568Z,102195.78
2022-11-10T20:19:27.397Z,102197.25
2022-11-10T20:22:13.717Z,102196.53
2022-11-10T20:25:00.175Z,102208.25
2022-11-10T20:27:46.114Z,102214.53
2022-11-10T20:30:37.871Z,102220.84
2022-11-10T20:33:24.738Z,102218.19
2022-11-10T20:36:18.924Z,102215.31
2022-11-10T20:39:06.478Z,102212.66
2022-11-10T20:41:52.765Z,102219.84
2022-11-10T20:44:39.006Z,102223.13
2022-11-10T20:47:26.255Z,102228.47
2022-11-10T20:50:17.135Z,102226.72
2022-11-10T20:53:05.947Z,102228.50
2022-11-10T20:56:02.272Z,102226.59
2022-11-10T20:58:49.262Z,102228.13
2022-11-10T21:01:35.596Z,102226.34
2022-11-10T21:04:21.516Z,102241.50
2022-11-10T21:07:07.543Z,102238.72
2022-11-10T21:09:53.495Z,102233.78
2022-11-10T21:12:51.374Z,102243.91
2022-11-10T21:15:40.961Z,102251.41
2022-11-10T21:18:35.268Z,102252.22
2022-11-10T21:21:28.084Z,102257.38
2022-11-10T21:24:14.200Z,102254.19
2022-11-10T21:27:00.283Z,102254.47
2022-11-10T21:29:46.523Z,102247.25
2022-11-10T21:32:32.575Z,102245.78
2022-11-10T21:35:18.672Z,102240.47
2022-11-10T21:38:05.484Z,102239.44
2022-11-10T21:40:51.430Z,102252.50
2022-11-10T21:43:38.826Z,102246.38
2022-11-10T21:46:25.333Z,102252.22
2022-11-10T21:49:11.161Z,102251.25
2022-11-10T21:51:57.190Z,102252.09
2022-11-10T21:54:43.214Z,102257.53
2022-11-10T21:57:29.126Z,102254.69
2022-11-10T22:00:15.159Z,102257.31
2022-11-10T22:03:03.640Z,102259.59
2022-11-10T22:05:49.861Z,102262.91
2022-11-10T22:08:36.751Z,102265.59
2022-11-10T22:11:41.261Z,102262.13
2022-11-10T22:14:46.028Z,102263.81
2022-11-10T22:17:50.706Z,102266.28
2022-11-10T22:20:36.629Z,102266.56
2022-11-10T22:23:42.772Z,102268.97
2022-11-10T22:26:28.565Z,102276.28
2022-11-10T22:29:14.681Z,102272.97
2022-11-10T22:32:01.388Z,102268.59
2022-11-10T22:34:47.302Z,102267.84
2022-11-10T22:37:33.370Z,102271.97
2022-11-10T22:40:38.391Z,102272.31
2022-11-10T22:43:42.810Z,102272.13
2022-11-10T22:46:30.237Z,102282.75
2022-11-10T22:49:17.605Z,102291.31
2022-11-10T22:52:03.834Z,102297.97
2022-11-10T22:54:49.614Z,102303.63
2022-11-10T22:57:35.765Z,102296.44
2022-11-10T23:00:21.680Z,102300.06
2022-11-10T23:03:08.077Z,102304.53
2022-11-10T23:05:56.414Z,102303.78
2022-11-10T23:08:43.429Z,102300.06
2022-11-10T23:11:30.254Z,102302.56
2022-11-10T23:14:16.269Z,102295.47
2022-11-10T23:17:02.189Z,102302.63
2022-11-10T23:19:47.983Z,102294.28
2022-11-10T23:22:33.886Z,102288.44
2022-11-10T23:25:19.801Z,102291.72
2022-11-10T23:28:05.787Z,102305.63
2022-11-10T23:30:51.767Z,102310.84
2022-11-10T23:33:38.931Z,102317.03
2022-11-10T23:36:27.484Z,102305.53
2022-11-10T23:39:13.962Z,102314.19
2022-11-10T23:41:59.962Z,102305.75
2022-11-10T23:44:45.906Z,102308.94
2022-11-10T23:47:32.015Z,102303.78
2022-11-10T23:50:17.787Z,102301.75
2022-11-10T23:53:03.965Z,102300.78
2022-11-10T23:56:01.031Z,102302.44
2022-11-10T23:58:47.033Z,102296.28
